Mount Union, Louisiana
Current Conditions -  °F | °C
As of 3:53 PM on Sunday 21 Dec 2014 (Local Time) from KELD Reporting Station
Clear Clear  
Wind Chill: 57°   Ceiling: Unl
Heat Index: 57°   Visibility: 10mi
Dew Point: 41°   Wind: 8mph
Humidity: 55%   Direction: 120°ESE
Pressure: 29.97"   Gusts: NA
Location:  32.9317°N, 92.5282°W
Report Text: KELD 212153Z AUTO 12007KT 10SM CLR 14/05 A2997 RMK AO2 SLP149 T01390050
Loading
Personal Weather Stations






























Interactive Weather Map New forecast layout! Learn more

10-Day Weather Forecast

Advertisements
Track Severe Weather on mobile